createdAt,value
2018-08-03T00:02:11.509Z,19.87
2018-08-03T00:04:40.527Z,19.85
2018-08-03T00:07:09.818Z,19.81
2018-08-03T00:09:38.623Z,19.80
2018-08-03T00:12:08.194Z,19.89
2018-08-03T00:14:37.246Z,19.84
2018-08-03T00:17:06.328Z,19.88
2018-08-03T00:19:35.454Z,19.82
2018-08-03T00:22:04.818Z,19.81
2018-08-03T00:24:33.723Z,19.85
2018-08-03T00:27:02.503Z,19.87
2018-08-03T00:29:31.417Z,19.87
2018-08-03T00:32:00.340Z,19.84
2018-08-03T00:34:29.385Z,19.83
2018-08-03T00:36:58.781Z,19.71
2018-08-03T00:39:27.858Z,19.75
2018-08-03T00:41:56.957Z,19.84
2018-08-03T00:44:26.088Z,19.87
2018-08-03T00:46:55.196Z,19.79
2018-08-03T00:49:24.116Z,19.70
2018-08-03T00:51:53.113Z,19.78
2018-08-03T00:54:22.977Z,19.76
2018-08-03T00:56:51.775Z,19.72
2018-08-03T00:59:21.710Z,19.55
2018-08-03T01:01:50.672Z,19.52
2018-08-03T01:04:19.668Z,19.53
2018-08-03T01:06:48.803Z,19.56
2018-08-03T01:09:17.852Z,19.51
2018-08-03T01:11:47.564Z,19.44
2018-08-03T01:14:16.354Z,19.42
2018-08-03T01:16:45.272Z,19.44
2018-08-03T01:19:15.282Z,19.39
2018-08-03T01:21:45.427Z,19.46
2018-08-03T01:24:14.511Z,19.52
2018-08-03T01:26:43.627Z,19.51
2018-08-03T01:29:13.311Z,19.33
2018-08-03T01:31:42.291Z,19.28
2018-08-03T01:34:11.267Z,19.36
2018-08-03T01:36:40.047Z,19.32
2018-08-03T01:39:09.814Z,19.31
2018-08-03T01:41:38.901Z,19.27
2018-08-03T01:44:09.639Z,19.22
2018-08-03T01:46:38.392Z,19.23
2018-08-03T01:49:07.591Z,19.29
2018-08-03T01:51:37.141Z,19.28
2018-08-03T01:54:06.202Z,19.38
2018-08-03T01:56:35.009Z,19.40
2018-08-03T01:59:04.577Z,19.40
2018-08-03T02:01:33.818Z,19.42
2018-08-03T02:04:02.798Z,19.35
2018-08-03T02:06:32.045Z,19.35
2018-08-03T02:09:00.913Z,19.41
2018-08-03T02:11:30.212Z,19.32
2018-08-03T02:13:59.755Z,19.27
2018-08-03T02:16:28.810Z,19.23
2018-08-03T02:18:57.599Z,19.24
2018-08-03T02:21:26.794Z,19.24
2018-08-03T02:23:55.587Z,19.18
2018-08-03T02:26:24.471Z,19.12
2018-08-03T02:28:54.004Z,19.13
2018-08-03T02:31:22.980Z,19.04
2018-08-03T02:33:51.974Z,18.98
2018-08-03T02:36:22.375Z,18.94
2018-08-03T02:38:52.315Z,18.95
2018-08-03T02:41:21.050Z,18.96
2018-08-03T02:43:50.755Z,18.98
2018-08-03T02:46:19.759Z,18.96
2018-08-03T02:48:49.526Z,18.95
2018-08-03T02:51:18.943Z,18.94
2018-08-03T02:53:48.643Z,19.09
2018-08-03T02:56:17.634Z,19.08
2018-08-03T02:58:47.796Z,19.09
2018-08-03T03:01:17.362Z,19.02
2018-08-03T03:03:46.043Z,19.02
2018-08-03T03:06:15.383Z,19.03
2018-08-03T03:08:44.356Z,19.04
2018-08-03T03:11:13.727Z,19.04
2018-08-03T03:13:42.990Z,19.03
2018-08-03T03:16:12.544Z,19.03
2018-08-03T03:18:42.026Z,19.01
2018-08-03T03:21:11.269Z,18.97
2018-08-03T03:23:40.119Z,18.90
2018-08-03T03:26:08.842Z,18.87
2018-08-03T03:28:38.057Z,18.86
2018-08-03T03:31:06.739Z,18.85
2018-08-03T03:33:35.861Z,18.85
2018-08-03T03:36:05.418Z,18.89
2018-08-03T03:38:34.298Z,18.96
2018-08-03T03:41:03.408Z,19.21
2018-08-03T03:43:32.504Z,19.50
2018-08-03T03:46:01.517Z,19.77
2018-08-03T03:48:30.303Z,19.82
2018-08-03T03:50:59.440Z,19.87
2018-08-03T03:53:28.400Z,19.99
2018-08-03T03:55:57.374Z,19.86
2018-08-03T03:58:26.233Z,19.84
2018-08-03T04:00:55.392Z,19.98
2018-08-03T04:03:25.090Z,20.09
2018-08-03T04:05:54.631Z,20.21
2018-08-03T04:08:23.874Z,20.57
2018-08-03T04:10:52.940Z,21.33
2018-08-03T04:13:21.910Z,22.26
2018-08-03T04:15:50.899Z,23.30
2018-08-03T04:18:22.055Z,24.21
2018-08-03T04:20:52.372Z,25.04
2018-08-03T04:23:21.230Z,25.69
2018-08-03T04:25:50.152Z,26.23
2018-08-03T04:28:19.244Z,26.82
2018-08-03T04:30:48.211Z,27.32
2018-08-03T04:33:18.139Z,27.83
2018-08-03T04:35:47.814Z,28.29
2018-08-03T04:38:16.972Z,28.70
2018-08-03T04:40:46.051Z,28.39
2018-08-03T04:43:15.144Z,28.76
2018-08-03T04:45:44.654Z,29.35
2018-08-03T04:48:13.658Z,29.85
2018-08-03T04:50:42.545Z,30.29
2018-08-03T04:53:11.642Z,30.50
2018-08-03T04:55:40.711Z,30.68
2018-08-03T04:58:09.678Z,30.37
2018-08-03T05:00:38.823Z,30.32
2018-08-03T05:03:07.910Z,30.24
2018-08-03T05:05:36.806Z,30.54
2018-08-03T05:08:05.710Z,30.61
2018-08-03T05:10:34.631Z,30.65
2018-08-03T05:13:03.925Z,31.03
2018-08-03T05:15:33.726Z,31.12
2018-08-03T05:18:02.738Z,30.90
2018-08-03T05:20:31.812Z,30.57
2018-08-03T05:23:01.173Z,29.42
2018-08-03T05:25:30.358Z,28.71
2018-08-03T05:27:59.901Z,28.39
2018-08-03T05:30:28.804Z,28.60
2018-08-03T05:32:57.639Z,30.08
2018-08-03T05:35:26.569Z,30.17
2018-08-03T05:37:55.812Z,29.96
2018-08-03T05:40:27.057Z,28.51
2018-08-03T05:42:56.062Z,28.83
2018-08-03T05:45:25.108Z,28.16
2018-08-03T05:47:54.078Z,28.66
2018-08-03T05:50:23.267Z,28.68
2018-08-03T05:52:52.182Z,28.55
2018-08-03T05:55:21.654Z,28.25
2018-08-03T05:57:53.614Z,27.08
2018-08-03T06:00:22.940Z,26.31
2018-08-03T06:02:52.354Z,25.20
2018-08-03T06:05:22.286Z,25.00
2018-08-03T06:07:51.416Z,24.65
2018-08-03T06:10:20.542Z,25.06
2018-08-03T06:12:50.009Z,24.49
2018-08-03T06:15:19.721Z,24.43
2018-08-03T06:17:51.026Z,24.70
2018-08-03T06:20:20.151Z,25.04
2018-08-03T06:22:49.936Z,24.82
2018-08-03T06:25:18.717Z,24.93
2018-08-03T06:27:47.784Z,24.97
2018-08-03T06:30:16.889Z,25.31
2018-08-03T06:32:45.816Z,25.84
2018-08-03T06:35:15.071Z,25.83
2018-08-03T06:37:44.206Z,26.21
2018-08-03T06:40:13.175Z,25.74
2018-08-03T06:42:42.204Z,25.74
2018-08-03T06:45:11.232Z,25.40
2018-08-03T06:47:40.309Z,25.77
2018-08-03T06:50:09.205Z,26.36
2018-08-03T06:52:38.333Z,26.91
2018-08-03T06:55:07.568Z,27.88
2018-08-03T06:57:37.169Z,28.51
2018-08-03T07:00:07.285Z,30.07
2018-08-03T07:02:36.200Z,31.24
2018-08-03T07:05:05.303Z,31.20
2018-08-03T07:07:34.243Z,31.24
2018-08-03T07:10:03.199Z,30.68
2018-08-03T07:12:32.288Z,30.40
2018-08-03T07:15:01.602Z,29.66
2018-08-03T07:17:30.986Z,31.16
2018-08-03T07:20:00.766Z,30.53
2018-08-03T07:22:29.647Z,28.98
2018-08-03T07:24:59.412Z,27.30
2018-08-03T07:27:28.794Z,27.00
2018-08-03T07:29:58.530Z,27.12
2018-08-03T07:32:28.121Z,27.25
2018-08-03T07:34:57.662Z,26.62
2018-08-03T07:37:31.215Z,26.32
2018-08-03T07:40:02.030Z,25.98
2018-08-03T07:42:33.035Z,25.79
2018-08-03T07:45:02.729Z,25.85
2018-08-03T07:47:32.439Z,25.49
2018-08-03T07:50:01.547Z,25.04
2018-08-03T07:52:30.759Z,24.90
2018-08-03T07:54:59.522Z,24.56
2018-08-03T07:57:28.784Z,24.72
2018-08-03T07:59:57.648Z,24.63
2018-08-03T08:02:26.722Z,24.55
2018-08-03T08:04:55.634Z,24.35
2018-08-03T08:07:24.401Z,24.12
2018-08-03T08:09:53.083Z,23.98
2018-08-03T08:12:22.635Z,24.00
2018-08-03T08:14:51.480Z,23.60
2018-08-03T08:17:20.265Z,23.49
2018-08-03T08:19:49.362Z,23.45
2018-08-03T08:22:18.687Z,23.60
2018-08-03T08:24:47.466Z,23.63
2018-08-03T08:27:16.788Z,23.44
2018-08-03T08:29:45.675Z,23.06
2018-08-03T08:32:14.935Z,23.09
2018-08-03T08:34:43.878Z,23.34
2018-08-03T08:37:12.751Z,23.53
2018-08-03T08:39:42.247Z,23.44
2018-08-03T08:42:11.591Z,23.84
2018-08-03T08:44:40.432Z,23.93
2018-08-03T08:47:09.475Z,24.14
2018-08-03T08:49:38.630Z,24.35
2018-08-03T08:52:07.835Z,24.50
2018-08-03T08:54:36.640Z,25.05
2018-08-03T08:57:05.931Z,25.54
2018-08-03T08:59:35.331Z,25.79
2018-08-03T09:02:04.334Z,26.21
2018-08-03T09:04:33.873Z,25.96
2018-08-03T09:07:03.043Z,26.60
2018-08-03T09:09:31.726Z,27.20
2018-08-03T09:12:00.524Z,26.75
2018-08-03T09:14:29.442Z,25.72
2018-08-03T09:16:58.710Z,25.56
2018-08-03T09:19:27.508Z,25.26
2018-08-03T09:21:56.418Z,25.53
2018-08-03T09:24:25.456Z,25.72
2018-08-03T09:26:54.491Z,25.95
2018-08-03T09:29:23.534Z,25.53
2018-08-03T09:31:52.790Z,25.60
2018-08-03T09:34:21.991Z,25.34
2018-08-03T09:36:51.485Z,25.48
2018-08-03T09:39:21.106Z,25.55
2018-08-03T09:41:49.750Z,25.70
2018-08-03T09:44:19.031Z,25.93
2018-08-03T09:46:48.074Z,26.58
2018-08-03T09:49:16.891Z,26.29
2018-08-03T09:51:46.089Z,26.19
2018-08-03T09:54:15.277Z,26.82
2018-08-03T09:56:44.283Z,26.44
2018-08-03T09:59:13.431Z,26.41
2018-08-03T10:01:42.305Z,26.51
2018-08-03T10:04:11.186Z,26.12
2018-08-03T10:06:40.478Z,26.48
2018-08-03T10:09:09.860Z,26.37
2018-08-03T10:11:38.795Z,26.18
2018-08-03T10:14:08.568Z,26.30
2018-08-03T10:16:38.178Z,25.85
2018-08-03T10:19:07.167Z,25.81
2018-08-03T10:21:36.118Z,25.70
2018-08-03T10:24:05.359Z,25.97
2018-08-03T10:26:34.351Z,26.41
2018-08-03T10:29:03.149Z,26.70
2018-08-03T10:31:32.346Z,26.86
2018-08-03T10:34:01.752Z,26.46
2018-08-03T10:36:30.844Z,26.40
2018-08-03T10:38:59.939Z,26.55
2018-08-03T10:41:29.374Z,26.43
2018-08-03T10:43:58.471Z,26.12
2018-08-03T10:46:27.756Z,25.96
2018-08-03T10:48:56.945Z,25.79
2018-08-03T10:51:26.121Z,25.91
2018-08-03T10:53:55.208Z,26.25
2018-08-03T10:56:24.702Z,26.38
2018-08-03T10:58:53.750Z,26.54
2018-08-03T11:01:23.007Z,26.33
2018-08-03T11:03:52.202Z,26.62
2018-08-03T11:06:21.335Z,26.62
2018-08-03T11:08:50.123Z,26.32
2018-08-03T11:11:19.522Z,26.36
2018-08-03T11:13:48.548Z,26.44
2018-08-03T11:16:17.423Z,26.57
2018-08-03T11:18:46.209Z,26.79
2018-08-03T11:21:15.610Z,27.07
2018-08-03T11:23:44.744Z,27.04
2018-08-03T11:26:13.750Z,26.84
2018-08-03T11:28:42.681Z,26.23
2018-08-03T11:31:11.697Z,26.41
2018-08-03T11:33:40.938Z,26.64
2018-08-03T11:36:10.155Z,26.59
2018-08-03T11:38:39.217Z,26.78
2018-08-03T11:41:08.106Z,26.69
2018-08-03T11:43:37.486Z,26.66
2018-08-03T11:46:06.566Z,26.44
2018-08-03T11:48:35.922Z,26.52
2018-08-03T11:51:04.913Z,26.46
2018-08-03T11:53:34.290Z,26.20
2018-08-03T11:56:03.515Z,26.34
2018-08-03T11:58:32.667Z,26.47
2018-08-03T12:01:02.317Z,26.51
2018-08-03T12:03:31.381Z,26.55
2018-08-03T12:06:00.490Z,26.37
2018-08-03T12:08:29.464Z,26.54
2018-08-03T12:10:58.914Z,26.69
2018-08-03T12:13:27.988Z,26.53
2018-08-03T12:15:56.790Z,26.56
2018-08-03T12:18:25.915Z,26.63
2018-08-03T12:20:55.168Z,26.76
2018-08-03T12:23:24.295Z,26.72
2018-08-03T12:25:53.171Z,26.57
2018-08-03T12:28:21.972Z,26.43
2018-08-03T12:30:51.109Z,26.40
2018-08-03T12:33:20.174Z,26.42
2018-08-03T12:35:49.416Z,26.46
2018-08-03T12:38:18.330Z,26.42
2018-08-03T12:40:47.318Z,26.63
2018-08-03T12:43:16.473Z,26.79
2018-08-03T12:45:45.723Z,26.66
2018-08-03T12:48:14.698Z,26.67
2018-08-03T12:50:44.478Z,26.41
2018-08-03T12:53:13.081Z,26.26
2018-08-03T12:55:42.299Z,26.40
2018-08-03T12:58:11.444Z,26.68
2018-08-03T13:00:40.483Z,26.75
2018-08-03T13:03:09.456Z,26.60
2018-08-03T13:05:38.726Z,26.67
2018-08-03T13:08:08.032Z,26.45
2018-08-03T13:10:37.442Z,26.11
2018-08-03T13:13:06.221Z,25.98
2018-08-03T13:15:35.870Z,26.21
2018-08-03T13:18:04.642Z,26.22
2018-08-03T13:20:34.714Z,26.34
2018-08-03T13:23:04.526Z,26.49
2018-08-03T13:25:33.482Z,26.69
2018-08-03T13:28:02.736Z,26.64
2018-08-03T13:30:32.547Z,26.58
2018-08-03T13:33:01.464Z,26.57
2018-08-03T13:35:30.354Z,26.57
2018-08-03T13:37:59.345Z,26.70
2018-08-03T13:40:28.428Z,26.60
2018-08-03T13:42:57.623Z,26.53
2018-08-03T13:45:27.036Z,26.48
2018-08-03T13:47:56.158Z,26.23
2018-08-03T13:50:25.674Z,26.31
2018-08-03T13:52:54.518Z,26.28
2018-08-03T13:55:24.388Z,26.46
2018-08-03T13:57:53.151Z,26.44
2018-08-03T14:00:22.122Z,26.40
2018-08-03T14:02:51.469Z,26.27
2018-08-03T14:05:20.625Z,26.39
2018-08-03T14:07:49.505Z,26.35
2018-08-03T14:10:18.655Z,26.40
2018-08-03T14:12:47.777Z,26.28
2018-08-03T14:15:16.794Z,26.34
2018-08-03T14:17:45.943Z,26.29
2018-08-03T14:20:15.002Z,26.40
2018-08-03T14:22:44.243Z,26.44
2018-08-03T14:25:13.101Z,26.38
2018-08-03T14:27:41.977Z,26.30
2018-08-03T14:30:10.809Z,26.17
2018-08-03T14:32:39.911Z,26.22
2018-08-03T14:35:09.044Z,26.43
2018-08-03T14:37:38.155Z,26.41
2018-08-03T14:40:07.113Z,26.24
2018-08-03T14:42:36.058Z,26.36
2018-08-03T14:45:05.865Z,26.36
2018-08-03T14:47:35.689Z,26.32
2018-08-03T14:50:05.299Z,26.23
2018-08-03T14:52:34.391Z,26.23
2018-08-03T14:55:04.130Z,26.29
2018-08-03T14:57:32.899Z,26.43
2018-08-03T15:00:02.809Z,26.35
2018-08-03T15:02:31.898Z,26.11
2018-08-03T15:05:00.999Z,26.12
2018-08-03T15:07:30.508Z,26.06
2018-08-03T15:09:59.666Z,25.95
2018-08-03T15:12:28.638Z,25.89
2018-08-03T15:14:57.813Z,25.92
2018-08-03T15:17:26.611Z,25.94
2018-08-03T15:19:55.679Z,25.91
2018-08-03T15:22:25.188Z,25.86
2018-08-03T15:24:54.313Z,25.69
2018-08-03T15:27:23.315Z,25.77
2018-08-03T15:29:52.364Z,25.69
2018-08-03T15:32:22.054Z,25.78
2018-08-03T15:34:51.298Z,25.68
2018-08-03T15:37:20.347Z,25.76
2018-08-03T15:39:49.208Z,25.76
2018-08-03T15:42:18.446Z,25.70
2018-08-03T15:44:47.564Z,25.59
2018-08-03T15:47:16.822Z,25.65
2018-08-03T15:49:45.692Z,25.74
2018-08-03T15:52:14.879Z,25.77
2018-08-03T15:54:44.072Z,25.78
2018-08-03T15:57:13.662Z,25.76
2018-08-03T15:59:43.176Z,25.70
2018-08-03T16:02:11.885Z,25.52
2018-08-03T16:04:41.266Z,25.45
2018-08-03T16:07:11.008Z,25.48
2018-08-03T16:09:39.907Z,25.45
2018-08-03T16:12:09.575Z,25.15
2018-08-03T16:14:38.659Z,25.47
2018-08-03T16:17:07.706Z,25.52
2018-08-03T16:19:36.878Z,25.41
2018-08-03T16:22:06.036Z,25.53
2018-08-03T16:24:35.316Z,25.22
2018-08-03T16:27:04.372Z,25.41
2018-08-03T16:29:33.243Z,25.37
2018-08-03T16:32:02.294Z,25.26
2018-08-03T16:34:31.455Z,25.32
2018-08-03T16:37:00.344Z,25.22
2018-08-03T16:39:29.505Z,25.02
2018-08-03T16:41:58.729Z,25.09
2018-08-03T16:44:27.771Z,24.95
2018-08-03T16:46:57.059Z,25.03
2018-08-03T16:49:26.674Z,24.94
2018-08-03T16:51:55.854Z,24.93
2018-08-03T16:54:24.979Z,24.93
2018-08-03T16:56:54.027Z,24.88
2018-08-03T16:59:24.147Z,24.85
2018-08-03T17:01:53.719Z,24.89
2018-08-03T17:04:22.773Z,24.85
2018-08-03T17:06:51.890Z,24.83
2018-08-03T17:09:20.767Z,24.79
2018-08-03T17:11:49.647Z,24.76
2018-08-03T17:14:18.490Z,24.66
2018-08-03T17:16:47.316Z,24.60
2018-08-03T17:19:16.202Z,24.45
2018-08-03T17:21:45.103Z,24.39
2018-08-03T17:24:14.345Z,24.33
2018-08-03T17:26:43.435Z,24.40
2018-08-03T17:29:12.582Z,24.33
2018-08-03T17:31:42.993Z,24.26
2018-08-03T17:34:12.593Z,24.33
2018-08-03T17:36:42.327Z,24.26
2018-08-03T17:39:12.910Z,24.14
2018-08-03T17:41:46.217Z,24.12
2018-08-03T17:44:15.218Z,24.16
2018-08-03T17:46:44.308Z,24.07
2018-08-03T17:49:13.199Z,24.01
2018-08-03T17:51:42.004Z,23.98
2018-08-03T17:54:11.315Z,23.97
2018-08-03T17:56:40.147Z,23.94
2018-08-03T17:59:09.408Z,23.86
2018-08-03T18:01:38.432Z,23.82
2018-08-03T18:04:09.400Z,23.81
2018-08-03T18:06:39.132Z,23.76
2018-08-03T18:09:10.882Z,23.77
2018-08-03T18:11:40.505Z,23.72
2018-08-03T18:14:09.395Z,23.75
2018-08-03T18:16:38.469Z,23.75
2018-08-03T18:19:07.347Z,23.66
2018-08-03T18:21:42.372Z,23.66
2018-08-03T18:24:11.714Z,23.68
2018-08-03T18:26:40.435Z,23.64
2018-08-03T18:29:09.289Z,23.61
2018-08-03T18:31:38.727Z,23.54
2018-08-03T18:34:07.488Z,23.50
2018-08-03T18:36:36.278Z,23.52
2018-08-03T18:39:06.754Z,23.48
2018-08-03T18:41:36.183Z,23.46
2018-08-03T18:44:05.051Z,23.43
2018-08-03T18:46:34.383Z,23.40
2018-08-03T18:49:04.259Z,23.40
2018-08-03T18:51:35.493Z,23.34
2018-08-03T18:54:04.365Z,23.31
2018-08-03T18:56:33.166Z,23.30
2018-08-03T18:59:03.111Z,23.32
2018-08-03T19:01:32.362Z,23.22
2018-08-03T19:04:01.389Z,23.20
2018-08-03T19:06:31.545Z,23.19
2018-08-03T19:09:01.202Z,23.13
2018-08-03T19:11:30.231Z,23.08
2018-08-03T19:13:59.432Z,23.08
2018-08-03T19:16:28.410Z,23.07
2018-08-03T19:18:57.728Z,22.99
2018-08-03T19:21:27.215Z,22.95
2018-08-03T19:23:56.398Z,22.89
2018-08-03T19:26:26.474Z,22.88
2018-08-03T19:28:56.587Z,22.84
2018-08-03T19:31:25.698Z,22.84
2018-08-03T19:33:55.893Z,22.85
2018-08-03T19:36:25.121Z,22.84
2018-08-03T19:38:54.184Z,22.78
2018-08-03T19:41:23.157Z,22.76
2018-08-03T19:43:53.034Z,22.72
2018-08-03T19:46:22.704Z,22.61
2018-08-03T19:48:51.690Z,22.55
2018-08-03T19:51:21.065Z,22.55
2018-08-03T19:53:50.188Z,22.53
2018-08-03T19:56:19.258Z,22.50
2018-08-03T19:58:48.575Z,22.51
2018-08-03T20:01:17.380Z,22.48
2018-08-03T20:03:46.519Z,22.48
2018-08-03T20:06:15.994Z,22.47
2018-08-03T20:08:44.981Z,22.42
2018-08-03T20:11:14.439Z,22.35
2018-08-03T20:13:44.009Z,22.32
2018-08-03T20:16:13.102Z,22.26
2018-08-03T20:18:42.190Z,22.26
2018-08-03T20:21:11.723Z,22.24
2018-08-03T20:23:40.641Z,22.14
2018-08-03T20:26:09.768Z,22.10
2018-08-03T20:28:39.228Z,22.02
2018-08-03T20:31:08.138Z,21.93
2018-08-03T20:33:37.070Z,21.90
2018-08-03T20:36:06.484Z,21.87
2018-08-03T20:38:35.882Z,21.86
2018-08-03T20:41:04.758Z,21.86
2018-08-03T20:43:34.715Z,21.85
2018-08-03T20:46:03.811Z,21.81
2018-08-03T20:48:33.383Z,21.83
2018-08-03T20:51:02.720Z,21.80
2018-08-03T20:53:31.778Z,21.84
2018-08-03T20:56:00.598Z,21.82
2018-08-03T20:58:29.734Z,21.79
2018-08-03T21:00:59.323Z,21.81
2018-08-03T21:03:28.292Z,21.82
2018-08-03T21:05:57.719Z,21.85
2018-08-03T21:08:26.551Z,21.88
2018-08-03T21:10:55.481Z,21.87
2018-08-03T21:13:24.791Z,21.89
2018-08-03T21:15:53.765Z,21.87
2018-08-03T21:18:23.886Z,21.87
2018-08-03T21:20:52.719Z,21.84
2018-08-03T21:23:21.775Z,21.77
2018-08-03T21:25:50.873Z,21.75
2018-08-03T21:28:19.953Z,21.75
2018-08-03T21:30:49.154Z,21.72
2018-08-03T21:33:18.667Z,21.65
2018-08-03T21:35:47.695Z,21.59
2018-08-03T21:38:16.538Z,21.54
2018-08-03T21:40:46.077Z,21.46
2018-08-03T21:43:15.237Z,21.48
2018-08-03T21:45:44.134Z,21.49
2018-08-03T21:48:12.889Z,21.49
2018-08-03T21:50:42.143Z,21.46
2018-08-03T21:53:11.777Z,21.36
2018-08-03T21:55:40.626Z,21.37
2018-08-03T21:58:09.801Z,21.35
2018-08-03T22:00:39.254Z,21.27
2018-08-03T22:03:08.318Z,21.26
2018-08-03T22:05:37.554Z,21.24
2018-08-03T22:08:06.334Z,21.24
2018-08-03T22:10:35.103Z,21.24
2018-08-03T22:13:04.641Z,21.26
2018-08-03T22:15:34.822Z,21.21
2018-08-03T22:18:03.663Z,21.19
2018-08-03T22:20:32.562Z,21.03
2018-08-03T22:23:01.422Z,20.96
2018-08-03T22:25:30.330Z,20.86
2018-08-03T22:27:59.344Z,20.83
2018-08-03T22:30:28.614Z,20.74
2018-08-03T22:32:57.679Z,20.66
2018-08-03T22:35:26.654Z,20.64
2018-08-03T22:37:55.706Z,20.70
2018-08-03T22:40:24.678Z,20.67
2018-08-03T22:42:53.961Z,20.59
2018-08-03T22:45:22.770Z,20.57
2018-08-03T22:47:51.993Z,20.50
2018-08-03T22:50:21.282Z,20.46
2018-08-03T22:52:50.188Z,20.45
2018-08-03T22:55:19.329Z,20.45
2018-08-03T22:57:48.450Z,20.42
2018-08-03T23:00:18.019Z,20.40
2018-08-03T23:02:47.071Z,20.40
2018-08-03T23:05:16.594Z,20.27
2018-08-03T23:07:45.436Z,20.24
2018-08-03T23:10:14.372Z,20.28
2018-08-03T23:12:44.094Z,20.21
2018-08-03T23:15:13.154Z,20.17
2018-08-03T23:17:41.966Z,20.09
2018-08-03T23:20:11.176Z,20.09
2018-08-03T23:22:40.077Z,20.04
2018-08-03T23:25:09.007Z,20.11
2018-08-03T23:27:38.960Z,20.15
2018-08-03T23:30:09.319Z,20.15
2018-08-03T23:32:38.626Z,20.14
2018-08-03T23:35:08.454Z,20.11
2018-08-03T23:37:37.907Z,20.11
2018-08-03T23:40:07.138Z,20.11
2018-08-03T23:42:37.094Z,20.08
2018-08-03T23:45:06.801Z,20.13
2018-08-03T23:47:35.936Z,20.08
2018-08-03T23:50:06.279Z,20.04
2018-08-03T23:52:35.343Z,20.08
2018-08-03T23:55:04.312Z,20.12
2018-08-03T23:57:33.487Z,20.04
